createdAt,value
2023-02-12T00:02:11.324Z,37.00
2023-02-12T00:04:38.619Z,38.80
2023-02-12T00:07:05.412Z,40.50
2023-02-12T00:09:32.141Z,42.00
2023-02-12T00:11:58.943Z,42.70
2023-02-12T00:14:25.687Z,45.30
2023-02-12T00:16:52.432Z,47.20
2023-02-12T00:19:19.185Z,47.40
2023-02-12T00:21:45.923Z,50.20
2023-02-12T00:24:12.645Z,51.70
2023-02-12T00:26:39.422Z,52.60
2023-02-12T00:29:06.178Z,55.20
2023-02-12T00:31:33.175Z,56.70
2023-02-12T00:34:00.651Z,60.90
2023-02-12T00:36:29.783Z,63.60
2023-02-12T00:38:59.489Z,63.10
2023-02-12T00:41:26.811Z,66.90
2023-02-12T00:43:53.718Z,69.40
2023-02-12T00:46:20.984Z,72.50
2023-02-12T00:48:47.907Z,77.50
2023-02-12T00:51:14.770Z,80.00
2023-02-12T00:53:41.760Z,80.30
2023-02-12T00:56:08.514Z,84.20
2023-02-12T00:58:35.334Z,84.40
2023-02-12T01:01:02.135Z,84.10
2023-02-12T01:03:28.871Z,85.10
2023-02-12T01:05:57.329Z,85.90
2023-02-12T01:08:24.471Z,86.10
2023-02-12T01:11:02.925Z,87.80
2023-02-12T01:13:31.176Z,90.00
2023-02-12T01:16:14.197Z,90.90
2023-02-12T01:18:41.312Z,91.80
2023-02-12T01:21:11.184Z,92.50
2023-02-12T01:23:37.940Z,93.80
2023-02-12T01:26:04.866Z,94.30
2023-02-12T01:28:31.583Z,95.80
2023-02-12T01:30:58.380Z,97.10
2023-02-12T01:33:25.188Z,96.50
2023-02-12T01:35:52.006Z,96.10
2023-02-12T01:38:18.911Z,98.50
2023-02-12T01:40:45.685Z,97.80
2023-02-12T01:43:13.164Z,97.70
2023-02-12T01:45:47.413Z,99.30
2023-02-12T01:48:16.810Z,99.90
2023-02-12T01:50:45.949Z,99.90
2023-02-12T01:53:19.939Z,99.90
2023-02-12T01:55:49.659Z,99.90
2023-02-12T01:58:16.965Z,99.90
2023-02-12T02:00:44.500Z,99.90
2023-02-12T02:03:11.677Z,99.90
2023-02-12T02:05:42.823Z,99.90
2023-02-12T02:08:11.700Z,99.90
2023-02-12T02:10:38.535Z,99.90
2023-02-12T02:13:24.115Z,99.90
2023-02-12T02:15:56.680Z,99.90
2023-02-12T02:18:31.626Z,99.90
2023-02-12T02:21:27.925Z,99.90
2023-02-12T02:24:06.974Z,99.90
2023-02-12T02:26:57.694Z,99.90
2023-02-12T02:29:53.675Z,99.90
2023-02-12T02:32:29.578Z,99.90
2023-02-12T02:35:04.527Z,99.90
2023-02-12T02:37:40.565Z,99.90
2023-02-12T02:40:17.482Z,99.90
2023-02-12T02:42:57.831Z,99.90
2023-02-12T02:45:52.565Z,99.90
2023-02-12T02:48:27.942Z,99.90
2023-02-12T02:51:03.232Z,99.90
2023-02-12T02:53:44.731Z,99.90
2023-02-12T02:56:17.153Z,99.90
2023-02-12T02:58:48.590Z,99.90
2023-02-12T03:01:29.540Z,99.90
2023-02-12T03:04:10.291Z,99.90
2023-02-12T03:06:48.879Z,99.90
2023-02-12T03:09:22.355Z,99.90
2023-02-12T03:11:50.948Z,99.90
2023-02-12T03:14:38.419Z,99.90
2023-02-12T03:17:14.064Z,99.90
2023-02-12T03:19:52.925Z,99.90
2023-02-12T03:22:30.592Z,99.90
2023-02-12T03:25:09.694Z,99.90
2023-02-12T03:27:50.962Z,99.90
2023-02-12T03:30:18.122Z,99.90
2023-02-12T03:33:00.477Z,99.90
2023-02-12T03:35:41.506Z,99.90
2023-02-12T03:38:56.757Z,99.90
2023-02-12T03:41:45.265Z,99.90
2023-02-12T03:44:35.803Z,99.90
2023-02-12T03:47:19.303Z,99.90
2023-02-12T03:50:10.650Z,99.90
2023-02-12T03:52:37.750Z,99.90
2023-02-12T03:55:05.475Z,99.90
2023-02-12T03:57:38.395Z,99.90
2023-02-12T04:00:09.688Z,99.90
2023-02-12T04:02:36.808Z,99.90
2023-02-12T04:05:06.809Z,99.90
2023-02-12T04:07:35.141Z,99.90
2023-02-12T04:10:02.343Z,99.90
2023-02-12T04:12:45.112Z,99.90
2023-02-12T04:15:27.005Z,99.90
2023-02-12T04:18:28.770Z,99.90
2023-02-12T04:21:25.235Z,99.90
2023-02-12T04:23:54.747Z,99.90
2023-02-12T04:26:45.774Z,99.90
2023-02-12T04:29:36.022Z,99.90
2023-02-12T04:32:15.318Z,99.90
2023-02-12T04:34:58.854Z,99.90
2023-02-12T04:37:45.918Z,99.90
2023-02-12T04:40:15.325Z,99.90
2023-02-12T04:42:43.951Z,99.90
2023-02-12T04:45:17.260Z,99.90
2023-02-12T04:47:44.018Z,99.90
2023-02-12T04:50:11.134Z,99.90
2023-02-12T04:52:37.853Z,99.90
2023-02-12T04:55:04.918Z,99.90
2023-02-12T04:57:31.747Z,99.90
2023-02-12T04:59:58.556Z,99.90
2023-02-12T05:02:25.369Z,99.90
2023-02-12T05:04:52.141Z,99.90
2023-02-12T05:07:19.124Z,99.90
2023-02-12T05:09:45.848Z,99.90
2023-02-12T05:12:12.659Z,99.90
2023-02-12T05:14:39.467Z,99.90
2023-02-12T05:17:06.172Z,99.90
2023-02-12T05:19:33.038Z,99.90
2023-02-12T05:22:00.123Z,99.90
2023-02-12T05:24:27.003Z,99.90
2023-02-12T05:26:53.792Z,99.90
2023-02-12T05:29:20.707Z,99.90
2023-02-12T05:31:47.696Z,99.90
2023-02-12T05:34:14.776Z,99.90
2023-02-12T05:36:41.568Z,99.90
2023-02-12T05:39:08.460Z,99.90
2023-02-12T05:41:35.685Z,99.90
2023-02-12T05:44:06.690Z,99.90
2023-02-12T05:46:33.749Z,99.90
2023-02-12T05:49:00.579Z,99.90
2023-02-12T05:51:28.138Z,99.90
2023-02-12T05:54:01.770Z,99.90
2023-02-12T05:56:30.640Z,99.90
2023-02-12T05:59:02.220Z,99.90
2023-02-12T06:01:48.533Z,99.90
2023-02-12T06:04:17.897Z,99.90
2023-02-12T06:06:44.983Z,99.90
2023-02-12T06:09:13.473Z,99.90
2023-02-12T06:11:41.364Z,99.90
2023-02-12T06:14:10.975Z,99.90
2023-02-12T06:16:38.018Z,99.90
2023-02-12T06:19:05.893Z,99.90
2023-02-12T06:21:33.449Z,99.90
2023-02-12T06:24:00.172Z,99.90
2023-02-12T06:26:26.917Z,99.90
2023-02-12T06:28:53.898Z,99.90
2023-02-12T06:31:29.897Z,99.90
2023-02-12T06:34:00.193Z,99.90
2023-02-12T06:36:26.967Z,99.90
2023-02-12T06:38:53.988Z,99.90
2023-02-12T06:41:21.591Z,99.90
2023-02-12T06:43:49.254Z,99.90
2023-02-12T06:46:16.217Z,99.90
2023-02-12T06:48:43.021Z,99.90
2023-02-12T06:51:12.161Z,99.90
2023-02-12T06:53:39.114Z,99.90
2023-02-12T06:56:11.299Z,99.90
2023-02-12T06:58:39.491Z,99.90
2023-02-12T07:01:26.995Z,99.90
2023-02-12T07:03:56.677Z,99.90
2023-02-12T07:06:24.181Z,99.90
2023-02-12T07:08:51.167Z,99.90
2023-02-12T07:11:18.773Z,99.90
2023-02-12T07:13:45.877Z,99.90
2023-02-12T07:16:16.110Z,99.90
2023-02-12T07:18:44.334Z,99.90
2023-02-12T07:21:13.321Z,99.90
2023-02-12T07:23:40.546Z,99.90
2023-02-12T07:26:11.198Z,99.90
2023-02-12T07:28:38.049Z,99.90
2023-02-12T07:31:13.927Z,99.90
2023-02-12T07:33:41.837Z,99.90
2023-02-12T07:36:11.687Z,99.90
2023-02-12T07:38:45.337Z,99.90
2023-02-12T07:41:16.159Z,99.90
2023-02-12T07:43:44.657Z,99.90
2023-02-12T07:46:14.542Z,99.90
2023-02-12T07:48:41.345Z,99.90
2023-02-12T07:51:11.360Z,99.90
2023-02-12T07:53:38.778Z,99.90
2023-02-12T07:56:17.240Z,99.90
2023-02-12T07:58:46.068Z,99.90
2023-02-12T08:01:24.036Z,99.90
2023-02-12T08:03:51.434Z,99.90
2023-02-12T08:06:21.450Z,99.90
2023-02-12T08:08:48.860Z,99.90
2023-02-12T08:11:15.872Z,99.90
2023-02-12T08:13:42.985Z,99.90
2023-02-12T08:16:13.074Z,99.90
2023-02-12T08:18:39.948Z,99.90
2023-02-12T08:21:12.902Z,99.90
2023-02-12T08:23:39.802Z,99.90
2023-02-12T08:26:12.043Z,99.90
2023-02-12T08:28:41.222Z,99.90
2023-02-12T08:31:11.483Z,99.90
2023-02-12T08:33:38.187Z,99.90
2023-02-12T08:36:07.929Z,99.90
2023-02-12T08:38:34.899Z,99.90
2023-02-12T08:41:16.644Z,99.90
2023-02-12T08:43:44.213Z,99.90
2023-02-12T08:46:16.903Z,99.90
2023-02-12T08:48:45.180Z,99.90
2023-02-12T08:51:18.454Z,99.90
2023-02-12T08:53:48.303Z,99.90
2023-02-12T08:56:17.376Z,99.90
2023-02-12T08:58:46.133Z,99.90
2023-02-12T09:01:16.524Z,99.90
2023-02-12T09:03:44.392Z,99.90
2023-02-12T09:06:11.940Z,99.90
2023-02-12T09:08:39.881Z,99.90
2023-02-12T09:11:19.224Z,99.90
2023-02-12T09:13:47.586Z,99.90
2023-02-12T09:16:14.785Z,99.90
2023-02-12T09:18:41.623Z,99.90
2023-02-12T09:21:13.844Z,99.90
2023-02-12T09:23:40.994Z,99.90
2023-02-12T09:26:10.142Z,99.90
2023-02-12T09:28:38.154Z,99.90
2023-02-12T09:31:13.360Z,99.90
2023-02-12T09:33:40.730Z,99.90
2023-02-12T09:36:16.481Z,99.90
2023-02-12T09:38:44.249Z,99.90
2023-02-12T09:41:30.682Z,99.90
2023-02-12T09:44:05.043Z,99.90
2023-02-12T09:46:36.643Z,99.90
2023-02-12T09:49:34.305Z,99.90
2023-02-12T09:52:01.671Z,99.90
2023-02-12T09:54:38.383Z,99.90
2023-02-12T09:57:21.421Z,99.90
2023-02-12T10:00:11.067Z,99.90
2023-02-12T10:02:39.939Z,99.90
2023-02-12T10:05:16.967Z,99.90
2023-02-12T10:07:52.996Z,99.90
2023-02-12T10:10:34.804Z,99.90
2023-02-12T10:13:12.682Z,99.90
2023-02-12T10:16:02.424Z,99.90
2023-02-12T10:18:49.759Z,99.90
2023-02-12T10:21:28.773Z,99.90
2023-02-12T10:24:05.771Z,99.90
2023-02-12T10:26:38.164Z,99.90
2023-02-12T10:29:27.197Z,99.90
2023-02-12T10:32:07.426Z,99.90
2023-02-12T10:34:36.705Z,99.90
2023-02-12T10:37:11.840Z,99.90
2023-02-12T10:39:43.611Z,99.90
2023-02-12T10:42:19.315Z,99.90
2023-02-12T10:44:46.774Z,99.90
2023-02-12T10:47:23.874Z,99.90
2023-02-12T10:49:56.615Z,99.90
2023-02-12T10:52:45.033Z,99.90
2023-02-12T10:55:33.558Z,99.90
2023-02-12T10:58:03.136Z,99.90
2023-02-12T11:00:38.263Z,97.00
2023-02-12T11:03:11.201Z,97.40
2023-02-12T11:05:40.240Z,88.60
2023-02-12T11:08:25.834Z,67.60
2023-02-12T11:10:52.758Z,84.50
2023-02-12T11:13:28.901Z,75.30
2023-02-12T11:15:55.850Z,75.20
2023-02-12T11:18:27.128Z,71.60
2023-02-12T11:20:57.858Z,79.00
2023-02-12T11:23:42.589Z,88.90
2023-02-12T11:26:18.373Z,72.90
2023-02-12T11:28:55.983Z,71.80
2023-02-12T11:31:28.567Z,56.70
2023-02-12T11:34:15.464Z,47.60
2023-02-12T11:36:48.904Z,45.40
2023-02-12T11:39:38.949Z,45.80
2023-02-12T11:42:25.230Z,42.00
2023-02-12T11:44:58.129Z,48.00
2023-02-12T11:47:32.395Z,43.50
2023-02-12T11:50:04.935Z,29.70
2023-02-12T11:52:35.053Z,20.70
2023-02-12T11:55:06.523Z,33.80
2023-02-12T11:57:43.706Z,42.60
2023-02-12T12:00:57.049Z,38.60
2023-02-12T12:03:41.757Z,43.90
2023-02-12T12:06:22.140Z,33.90
2023-02-12T12:08:56.897Z,22.90
2023-02-12T12:12:11.002Z,25.80
2023-02-12T12:15:04.834Z,21.40
2023-02-12T12:18:10.269Z,28.10
2023-02-12T12:20:55.359Z,37.90
2023-02-12T12:23:35.745Z,41.20
2023-02-12T12:26:26.835Z,35.50
2023-02-12T12:29:06.663Z,36.60
2023-02-12T12:31:47.006Z,33.40
2023-02-12T12:34:26.034Z,14.10
2023-02-12T12:37:13.901Z,3.20
2023-02-12T12:39:41.011Z,13.10
2023-02-12T12:42:55.710Z,13.10
2023-02-12T12:46:00.002Z,10.40
2023-02-12T12:48:38.798Z,16.20
2023-02-12T12:51:14.300Z,1.50
2023-02-12T12:54:03.846Z,21.50
2023-02-12T12:56:42.370Z,29.90
2023-02-12T12:59:21.056Z,33.80
2023-02-12T13:01:50.558Z,37.80
2023-02-12T13:04:20.290Z,33.40
2023-02-12T13:07:09.145Z,28.80
2023-02-12T13:09:54.313Z,38.50
2023-02-12T13:13:00.556Z,30.20
2023-02-12T13:16:03.311Z,30.50
2023-02-12T13:18:41.763Z,39.90
2023-02-12T13:21:18.329Z,36.90
2023-02-12T13:24:18.735Z,39.40
2023-02-12T13:27:03.947Z,45.20
2023-02-12T13:29:42.071Z,39.10
2023-02-12T13:32:23.465Z,39.90
2023-02-12T13:34:53.025Z,41.80
2023-02-12T13:37:45.410Z,39.30
2023-02-12T13:40:24.015Z,47.10
2023-02-12T13:43:21.878Z,33.20
2023-02-12T13:46:13.580Z,32.60
2023-02-12T13:48:55.327Z,48.00
2023-02-12T13:51:34.533Z,33.30
2023-02-12T13:54:25.799Z,46.90
2023-02-12T13:57:01.519Z,34.70
2023-02-12T13:59:36.745Z,36.50
2023-02-12T14:02:12.663Z,61.40
2023-02-12T14:04:39.429Z,82.10
2023-02-12T14:07:12.763Z,62.10
2023-02-12T14:09:50.778Z,84.00
2023-02-12T14:12:31.975Z,28.80
2023-02-12T14:15:10.712Z,28.90
2023-02-12T14:17:37.464Z,36.00
2023-02-12T14:20:27.922Z,43.00
2023-02-12T14:23:01.984Z,47.60
2023-02-12T14:25:41.340Z,50.40
2023-02-12T14:28:29.259Z,50.20
2023-02-12T14:31:17.872Z,53.60
2023-02-12T14:33:46.325Z,55.90
2023-02-12T14:36:31.928Z,57.60
2023-02-12T14:39:24.608Z,50.20
2023-02-12T14:41:55.097Z,54.90
2023-02-12T14:44:23.210Z,54.80
2023-02-12T14:47:14.441Z,53.90
2023-02-12T14:49:49.105Z,53.00
2023-02-12T14:52:20.884Z,50.50
2023-02-12T14:54:50.427Z,75.20
2023-02-12T14:57:35.016Z,84.10
2023-02-12T15:00:16.568Z,91.70
2023-02-12T15:02:48.513Z,89.60
2023-02-12T15:05:32.264Z,54.60
2023-02-12T15:08:05.144Z,55.00
2023-02-12T15:10:42.884Z,55.60
2023-02-12T15:13:40.903Z,66.10
2023-02-12T15:16:14.902Z,58.40
2023-02-12T15:18:44.681Z,55.80
2023-02-12T15:21:20.539Z,64.40
2023-02-12T15:23:58.212Z,68.50
2023-02-12T15:26:27.213Z,71.20
2023-02-12T15:28:54.274Z,74.00
2023-02-12T15:31:27.142Z,74.60
2023-02-12T15:33:56.437Z,77.60
2023-02-12T15:36:28.498Z,80.60
2023-02-12T15:39:01.628Z,84.20
2023-02-12T15:41:34.222Z,86.90
2023-02-12T15:44:03.322Z,86.80
2023-02-12T15:46:30.248Z,90.10
2023-02-12T15:48:58.007Z,90.70
2023-02-12T15:51:37.160Z,91.90
2023-02-12T15:54:06.518Z,84.10
2023-02-12T15:56:36.163Z,86.60
2023-02-12T15:59:03.775Z,88.40
2023-02-12T16:01:35.562Z,92.90
2023-02-12T16:04:07.808Z,95.00
2023-02-12T16:06:39.372Z,98.20
2023-02-12T16:09:17.336Z,99.90
2023-02-12T16:11:47.227Z,99.90
2023-02-12T16:14:20.666Z,99.90
2023-02-12T16:16:50.699Z,99.90
2023-02-12T16:19:27.724Z,99.90
2023-02-12T16:22:05.773Z,99.90
2023-02-12T16:24:38.131Z,99.90
2023-02-12T16:27:16.981Z,99.90
2023-02-12T16:29:59.474Z,99.90
2023-02-12T16:32:37.012Z,99.90
2023-02-12T16:35:09.659Z,99.90
2023-02-12T16:37:36.390Z,99.90
2023-02-12T16:40:12.217Z,99.90
2023-02-12T16:42:48.025Z,99.90
2023-02-12T16:45:26.891Z,99.90
2023-02-12T16:48:08.854Z,99.90
2023-02-12T16:50:39.433Z,99.90
2023-02-12T16:53:08.635Z,99.90
2023-02-12T16:55:36.727Z,99.90
2023-02-12T16:58:03.623Z,99.90
2023-02-12T17:00:30.335Z,99.90
2023-02-12T17:02:57.816Z,99.90
2023-02-12T17:05:24.616Z,99.90
2023-02-12T17:07:51.784Z,99.90
2023-02-12T17:10:18.707Z,99.90
2023-02-12T17:12:50.294Z,99.90
2023-02-12T17:15:28.503Z,99.90
2023-02-12T17:17:55.224Z,99.90
2023-02-12T17:20:22.220Z,99.90
2023-02-12T17:22:55.017Z,99.90
2023-02-12T17:25:21.789Z,99.90
2023-02-12T17:27:48.631Z,99.90
2023-02-12T17:30:17.708Z,99.90
2023-02-12T17:32:44.680Z,99.90
2023-02-12T17:35:11.483Z,99.90
2023-02-12T17:37:38.265Z,99.90
2023-02-12T17:40:06.889Z,99.90
2023-02-12T17:42:33.732Z,99.90
2023-02-12T17:45:00.461Z,99.90
2023-02-12T17:47:27.376Z,99.90
2023-02-12T17:49:54.245Z,99.90
2023-02-12T17:52:21.176Z,99.90
2023-02-12T17:54:47.898Z,99.90
2023-02-12T17:57:15.042Z,99.90
2023-02-12T17:59:42.186Z,99.90
2023-02-12T18:02:11.585Z,99.90
2023-02-12T18:04:38.518Z,99.90
2023-02-12T18:07:05.630Z,99.90
2023-02-12T18:09:33.077Z,99.90
2023-02-12T18:11:59.951Z,99.90
2023-02-12T18:14:26.705Z,99.90
2023-02-12T18:16:53.576Z,99.90
2023-02-12T18:19:20.387Z,99.90
2023-02-12T18:21:47.685Z,99.90
2023-02-12T18:24:14.497Z,99.90
2023-02-12T18:26:41.269Z,99.90
2023-02-12T18:29:08.152Z,99.90
2023-02-12T18:31:35.928Z,99.90
2023-02-12T18:34:04.526Z,99.90
2023-02-12T18:36:31.373Z,99.90
2023-02-12T18:39:01.044Z,99.90
2023-02-12T18:41:30.759Z,99.90
2023-02-12T18:43:58.732Z,99.90
2023-02-12T18:46:28.373Z,99.90
2023-02-12T18:48:55.646Z,99.90
2023-02-12T18:51:24.879Z,99.90
2023-02-12T18:54:02.878Z,99.90
2023-02-12T18:56:33.200Z,99.90
2023-02-12T18:59:04.884Z,99.90
2023-02-12T19:01:32.963Z,99.90
2023-02-12T19:04:01.937Z,99.90
2023-02-12T19:06:30.465Z,99.90
2023-02-12T19:08:59.295Z,99.90
2023-02-12T19:11:27.416Z,99.90
2023-02-12T19:13:54.724Z,99.90
2023-02-12T19:16:23.754Z,99.90
2023-02-12T19:18:59.983Z,99.90
2023-02-12T19:21:27.058Z,99.90
2023-02-12T19:23:56.554Z,99.90
2023-02-12T19:26:23.750Z,99.90
2023-02-12T19:28:50.617Z,99.90
2023-02-12T19:31:25.335Z,99.90
2023-02-12T19:33:57.272Z,99.90
2023-02-12T19:36:25.230Z,99.90
2023-02-12T19:38:52.272Z,99.90
2023-02-12T19:41:21.584Z,99.90
2023-02-12T19:43:48.775Z,99.90
2023-02-12T19:46:18.628Z,99.90
2023-02-12T19:48:47.036Z,99.90
2023-02-12T19:51:15.805Z,99.90
2023-02-12T19:53:43.612Z,99.90
2023-02-12T19:56:10.820Z,99.90
2023-02-12T19:58:38.502Z,99.90
2023-02-12T20:01:16.707Z,99.90
2023-02-12T20:03:44.500Z,99.90
2023-02-12T20:06:22.018Z,99.90
2023-02-12T20:08:49.503Z,99.90
2023-02-12T20:11:19.604Z,99.90
2023-02-12T20:13:46.799Z,99.90
2023-02-12T20:16:19.676Z,99.90
2023-02-12T20:18:48.609Z,99.90
2023-02-12T20:21:21.717Z,99.90
2023-02-12T20:23:48.754Z,99.90
2023-02-12T20:26:17.979Z,99.90
2023-02-12T20:28:44.909Z,99.90
2023-02-12T20:31:14.498Z,99.90
2023-02-12T20:33:44.440Z,99.90
2023-02-12T20:36:12.462Z,99.90
2023-02-12T20:38:41.276Z,99.90
2023-02-12T20:41:09.527Z,99.90
2023-02-12T20:43:37.416Z,99.90
2023-02-12T20:46:06.846Z,99.90
2023-02-12T20:48:33.974Z,99.90
2023-02-12T20:51:05.830Z,99.90
2023-02-12T20:53:35.670Z,99.90
2023-02-12T20:56:08.144Z,99.90
2023-02-12T20:58:35.268Z,99.90
2023-02-12T21:01:09.023Z,99.90
2023-02-12T21:03:36.751Z,99.90
2023-02-12T21:06:04.105Z,99.90
2023-02-12T21:08:31.483Z,99.90
2023-02-12T21:11:00.206Z,99.90
2023-02-12T21:13:29.604Z,99.90
2023-02-12T21:16:11.927Z,99.90
2023-02-12T21:18:38.911Z,99.90
2023-02-12T21:21:11.808Z,99.90
2023-02-12T21:23:39.162Z,99.90
2023-02-12T21:26:15.006Z,99.90
2023-02-12T21:28:42.286Z,99.90
2023-02-12T21:31:15.344Z,99.90
2023-02-12T21:33:43.770Z,99.90
2023-02-12T21:36:13.217Z,99.90
2023-02-12T21:38:41.826Z,99.90
2023-02-12T21:41:10.220Z,99.90
2023-02-12T21:43:38.412Z,99.90
2023-02-12T21:46:05.687Z,99.90
2023-02-12T21:48:33.155Z,99.90
2023-02-12T21:51:00.440Z,99.90
2023-02-12T21:53:27.700Z,99.90
2023-02-12T21:55:55.361Z,99.90
2023-02-12T21:58:22.966Z,99.90
2023-02-12T22:00:50.638Z,99.90
2023-02-12T22:03:19.512Z,99.90
2023-02-12T22:05:47.141Z,99.90
2023-02-12T22:08:13.928Z,99.90
2023-02-12T22:10:40.751Z,99.90
2023-02-12T22:13:07.438Z,99.90
2023-02-12T22:15:34.173Z,99.90
2023-02-12T22:18:00.976Z,99.90
2023-02-12T22:20:27.831Z,99.90
2023-02-12T22:22:54.645Z,99.90
2023-02-12T22:25:22.097Z,99.90
2023-02-12T22:27:48.854Z,99.90
2023-02-12T22:30:16.655Z,99.90
2023-02-12T22:32:43.753Z,99.90
2023-02-12T22:35:11.132Z,99.90
2023-02-12T22:37:41.509Z,99.90
2023-02-12T22:40:09.998Z,99.90
2023-02-12T22:42:36.982Z,99.90
2023-02-12T22:45:04.021Z,99.90
2023-02-12T22:47:32.110Z,99.90
2023-02-12T22:49:59.858Z,99.90
2023-02-12T22:52:27.720Z,99.90
2023-02-12T22:54:55.223Z,99.90
2023-02-12T22:57:21.978Z,99.90
2023-02-12T22:59:49.215Z,99.90
2023-02-12T23:02:16.057Z,99.90
2023-02-12T23:04:42.852Z,99.90
2023-02-12T23:07:09.783Z,99.90
2023-02-12T23:09:36.492Z,99.90
2023-02-12T23:12:07.483Z,99.90
2023-02-12T23:14:36.173Z,99.90
2023-02-12T23:17:04.319Z,99.90
2023-02-12T23:19:31.556Z,99.90
2023-02-12T23:21:58.821Z,99.90
2023-02-12T23:24:25.946Z,99.90
2023-02-12T23:26:53.723Z,99.90
2023-02-12T23:29:20.980Z,99.90
2023-02-12T23:31:47.906Z,99.90
2023-02-12T23:34:14.980Z,99.90
2023-02-12T23:36:41.682Z,99.90
2023-02-12T23:39:10.660Z,99.90
2023-02-12T23:41:37.418Z,99.90
2023-02-12T23:44:04.652Z,99.90
2023-02-12T23:46:31.419Z,99.90
2023-02-12T23:48:58.160Z,99.90
2023-02-12T23:51:24.943Z,99.90
2023-02-12T23:53:51.666Z,99.90
2023-02-12T23:56:18.459Z,99.90
2023-02-12T23:58:45.282Z,99.90
